Time;durP1;ratioP1;P1;durP2;ratioP2;P2;SDS_P1;SDS_P2;PMS_P1;PMS_P2;Temp;Humidity;BMP_temperature;BMP_pressure;BME280_temperature;BME280_humidity;BME280_pressure;Samples;Min_cycle;Max_cycle;Signal;HPM_P1;HPM_P2
2022/12/05 00:00:12;;;;;;;17.93;13.70;;;2.70;99.90;;;;;;5092562;28;20227;-67
2022/12/05 00:02:38;;;;;;;15.70;12.63;;;3.00;99.90;;;;;;5080644;28;20165;-68
2022/12/05 00:05:04;;;;;;;20.40;14.60;;;3.00;99.90;;;;;;5113293;28;20200;-68
2022/12/05 00:07:29;;;;;;;16.33;13.10;;;3.00;99.90;;;;;;5112951;28;20173;-68
2022/12/05 00:09:55;;;;;;;18.87;12.47;;;3.00;99.90;;;;;;5104201;28;20200;-68
2022/12/05 00:12:20;;;;;;;16.67;13.87;;;3.00;99.90;;;;;;5094736;28;20283;-68
2022/12/05 00:14:46;;;;;;;17.30;12.33;;;3.00;99.90;;;;;;5112782;28;20208;-67
2022/12/05 00:17:11;;;;;;;14.57;11.83;;;3.00;99.90;;;;;;5112430;28;20164;-68
2022/12/05 00:19:38;;;;;;;13.97;12.67;;;3.10;99.90;;;;;;5092439;28;20169;-68
2022/12/05 00:22:04;;;;;;;14.33;11.43;;;3.10;99.90;;;;;;5092277;28;20585;-67
2022/12/05 00:24:29;;;;;;;15.10;12.90;;;3.10;99.90;;;;;;5092430;28;20300;-68
2022/12/05 00:26:55;;;;;;;17.97;14.13;;;3.10;99.90;;;;;;5091608;28;20204;-69
2022/12/05 00:29:21;;;;;;;17.57;14.73;;;3.10;99.90;;;;;;5092021;28;20207;-68
2022/12/05 00:31:46;;;;;;;17.77;12.37;;;3.10;99.90;;;;;;5112499;28;20204;-68
2022/12/05 00:34:12;;;;;;;15.90;14.37;;;3.10;99.90;;;;;;5111891;28;20201;-68
2022/12/05 00:36:38;;;;;;;17.47;13.53;;;3.10;99.90;;;;;;5112664;28;20255;-68
2022/12/05 00:39:08;;;;;;;16.40;12.80;;;3.00;99.90;;;;;;5093906;28;20208;-69
2022/12/05 00:41:34;;;;;;;20.90;12.37;;;3.00;99.90;;;;;;5112951;28;20647;-69
2022/12/05 00:44:01;;;;;;;14.70;13.20;;;3.00;99.90;;;;;;5098910;28;20205;-69
2022/12/05 00:46:28;;;;;;;14.40;12.73;;;3.00;99.90;;;;;;5092078;28;20205;-68
2022/12/05 00:48:55;;;;;;;15.77;13.07;;;3.00;99.90;;;;;;5086336;28;20645;-68
2022/12/05 00:51:27;;;;;;;17.80;13.07;;;3.00;99.90;;;;;;5112227;28;20539;-67
2022/12/05 00:53:53;;;;;;;21.97;13.73;;;3.00;99.90;;;;;;5081983;28;20655;-68
2022/12/05 00:56:22;;;;;;;14.63;10.77;;;3.00;99.90;;;;;;5092140;28;20181;-68
2022/12/05 00:58:50;;;;;;;18.77;13.37;;;3.00;99.90;;;;;;5102428;28;20173;-68
2022/12/05 01:01:19;;;;;;;16.27;13.67;;;3.00;99.90;;;;;;5112049;28;20215;-67
2022/12/05 01:03:45;;;;;;;20.63;14.47;;;3.00;99.90;;;;;;5102654;28;20224;-68
2022/12/05 01:06:12;;;;;;;16.73;13.57;;;3.00;99.90;;;;;;5091696;28;20231;-68
2022/12/05 01:08:38;;;;;;;20.10;13.47;;;2.90;99.90;;;;;;5100471;28;20177;-68
2022/12/05 01:11:06;;;;;;;13.53;12.03;;;2.90;99.90;;;;;;5111779;28;20181;-68
2022/12/05 01:13:32;;;;;;;15.47;10.40;;;2.90;99.90;;;;;;5104302;28;20197;-68
2022/12/05 01:15:58;;;;;;;15.13;11.97;;;3.00;99.90;;;;;;5073378;28;20192;-68
2022/12/05 01:18:25;;;;;;;20.17;10.57;;;3.00;99.90;;;;;;5078683;28;20173;-67
2022/12/05 01:20:51;;;;;;;25.07;12.50;;;3.00;99.90;;;;;;5111926;28;20175;-68
2022/12/05 01:23:16;;;;;;;13.70;12.00;;;3.00;99.90;;;;;;5108066;28;20182;-67
2022/12/05 01:25:45;;;;;;;15.73;13.40;;;3.00;99.90;;;;;;5090699;28;20683;-68
2022/12/05 01:28:12;;;;;;;17.17;12.80;;;3.00;99.90;;;;;;5111126;28;20177;-68
2022/12/05 01:30:45;;;;;;;20.50;13.63;;;3.00;99.90;;;;;;5112077;28;20171;-68
2022/12/05 01:33:11;;;;;;;15.03;12.07;;;3.00;99.90;;;;;;5112444;28;20182;-68
2022/12/05 01:35:38;;;;;;;18.23;11.83;;;3.00;99.90;;;;;;5115279;28;20502;-67
2022/12/05 01:38:04;;;;;;;17.77;13.07;;;3.00;99.90;;;;;;5079237;28;20260;-67
2022/12/05 01:40:31;;;;;;;14.33;11.87;;;3.00;99.90;;;;;;5077242;28;20169;-67
2022/12/05 01:42:56;;;;;;;17.57;13.00;;;3.10;99.90;;;;;;5112026;28;20173;-67
2022/12/05 01:45:44;;;;;;;14.30;12.63;;;3.10;99.90;;;;;;5097651;28;20261;-68
2022/12/05 01:48:23;;;;;;;16.03;12.50;;;3.00;99.90;;;;;;5096579;28;20646;-67
2022/12/05 01:50:49;;;;;;;22.60;13.97;;;3.00;99.90;;;;;;5095345;28;20539;-67
2022/12/05 01:53:16;;;;;;;20.77;14.70;;;3.10;99.90;;;;;;5096046;28;20183;-69
2022/12/05 01:55:43;;;;;;;18.40;13.80;;;3.00;99.90;;;;;;5095352;28;20689;-67
2022/12/05 01:58:09;;;;;;;19.93;12.43;;;3.10;99.90;;;;;;5094640;28;20173;-68
2022/12/05 02:00:35;;;;;;;17.37;14.03;;;3.10;99.90;;;;;;5115486;28;20169;-68
2022/12/05 02:03:06;;;;;;;14.37;12.83;;;3.10;99.90;;;;;;5081493;28;20181;-67
2022/12/05 02:05:35;;;;;;;16.40;13.53;;;3.10;99.90;;;;;;5096340;28;20689;-68
2022/12/05 02:08:05;;;;;;;20.63;13.53;;;3.10;99.90;;;;;;5096361;28;20253;-68
2022/12/05 02:10:42;;;;;;;20.60;13.83;;;3.10;99.90;;;;;;5080621;28;20176;-68
2022/12/05 02:13:31;;;;;;;19.47;12.93;;;3.10;99.90;;;;;;5115372;28;20171;-68
2022/12/05 02:16:17;;;;;;;22.37;13.87;;;3.10;99.90;;;;;;5109308;22;20704;-65
2022/12/05 02:19:07;;;;;;;14.60;12.80;;;3.20;99.90;;;;;;5095909;28;20629;-65
2022/12/05 02:21:36;;;;;;;15.97;13.33;;;3.20;99.90;;;;;;5095100;28;20166;-65
2022/12/05 02:24:25;;;;;;;15.77;14.23;;;3.20;99.90;;;;;;5094824;28;20532;-65
2022/12/05 02:27:26;;;;;;;19.37;14.93;;;3.20;99.90;;;;;;5095022;28;20680;-65
2022/12/05 02:29:57;;;;;;;27.13;13.87;;;3.30;99.90;;;;;;5094488;28;20166;-65
2022/12/05 02:32:47;;;;;;;18.30;13.87;;;3.20;99.90;;;;;;5081671;28;20173;-65
2022/12/05 02:35:17;;;;;;;17.90;15.23;;;3.20;99.90;;;;;;5094660;28;20573;-65
2022/12/05 02:38:03;;;;;;;17.80;13.33;;;3.20;99.90;;;;;;5094772;28;20219;-65
2022/12/05 02:40:38;;;;;;;16.40;12.63;;;3.20;99.90;;;;;;5093520;28;20199;-65
2022/12/05 02:43:04;;;;;;;22.73;14.80;;;3.20;99.90;;;;;;5074241;28;20166;-66
2022/12/05 02:45:33;;;;;;;17.67;14.93;;;3.10;99.90;;;;;;5074279;28;20209;-65
2022/12/05 02:48:00;;;;;;;15.63;13.27;;;3.20;99.90;;;;;;5074187;28;20197;-65
2022/12/05 02:50:33;;;;;;;14.97;13.07;;;3.10;99.90;;;;;;5074720;28;20174;-66
2022/12/05 02:53:03;;;;;;;20.13;14.23;;;3.00;99.90;;;;;;5094918;28;20216;-65
2022/12/05 02:55:31;;;;;;;14.50;13.07;;;3.00;99.90;;;;;;5094446;28;20284;-65
2022/12/05 02:58:02;;;;;;;14.97;12.60;;;3.00;99.90;;;;;;5094330;28;20162;-65
2022/12/05 03:00:27;;;;;;;18.73;13.63;;;2.90;99.90;;;;;;5094668;28;20175;-65
2022/12/05 03:02:57;;;;;;;13.57;12.20;;;2.80;99.90;;;;;;5074690;28;20174;-65
2022/12/05 03:06:02;;;;;;;19.83;11.93;;;2.90;99.90;;;;;;5074052;28;20225;-65
2022/12/05 03:08:39;;;;;;;21.90;13.30;;;2.90;99.90;;;;;;5053181;28;20213;-65
2022/12/05 03:11:05;;;;;;;13.93;11.00;;;2.90;99.90;;;;;;5053742;28;20262;-65
2022/12/05 03:13:40;;;;;;;13.07;10.93;;;2.80;99.90;;;;;;5035925;28;20540;-65
2022/12/05 03:16:28;;;;;;;12.73;11.57;;;2.90;99.90;;;;;;5060330;28;20205;-65
2022/12/05 03:18:58;;;;;;;13.60;12.30;;;2.90;99.90;;;;;;5094209;28;20729;-65
2022/12/05 03:21:31;;;;;;;16.60;12.97;;;2.90;99.90;;;;;;5088462;28;20166;-65
2022/12/05 03:24:05;;;;;;;16.30;14.50;;;2.80;99.90;;;;;;5073567;28;20257;-65
2022/12/05 03:26:30;;;;;;;15.03;12.13;;;2.90;99.90;;;;;;5073572;28;20232;-65
2022/12/05 03:29:09;;;;;;;19.33;13.37;;;2.80;99.90;;;;;;5073509;28;20707;-65
2022/12/05 03:32:16;;;;;;;20.37;12.30;;;2.80;99.90;;;;;;5080851;28;20173;-71
2022/12/05 03:34:45;;;;;;;18.03;11.97;;;2.70;99.90;;;;;;5083167;28;20770;-70
2022/12/05 03:37:20;;;;;;;22.90;14.17;;;2.70;99.90;;;;;;5096035;28;20170;-71
2022/12/05 03:39:53;;;;;;;15.23;12.13;;;2.60;99.90;;;;;;5095394;28;20172;-69
2022/12/05 03:42:28;;;;;;;23.47;12.90;;;2.60;99.90;;;;;;5085142;28;20182;-72
2022/12/05 03:44:59;;;;;;;19.50;14.17;;;2.50;99.90;;;;;;5075516;28;20196;-71
2022/12/05 03:47:25;;;;;;;12.50;11.20;;;2.40;99.90;;;;;;5075294;28;20193;-69
2022/12/05 03:49:59;;;;;;;14.07;12.47;;;2.30;99.90;;;;;;5074969;28;20181;-68
2022/12/05 03:52:30;;;;;;;16.33;12.53;;;2.30;99.90;;;;;;5075458;28;20158;-68
2022/12/05 03:55:05;;;;;;;16.50;12.03;;;2.30;99.90;;;;;;5074822;28;20213;-69
2022/12/05 03:57:42;;;;;;;16.57;11.50;;;2.20;99.90;;;;;;5086704;28;20169;-70
2022/12/05 04:00:13;;;;;;;12.57;11.30;;;2.20;99.90;;;;;;5095173;28;20193;-70
2022/12/05 04:03:08;;;;;;;12.27;11.20;;;2.20;99.90;;;;;;5082642;28;20170;-69
2022/12/05 04:05:52;;;;;;;19.03;14.80;;;2.30;99.90;;;;;;5057000;28;20205;-70
2022/12/05 04:08:26;;;;;;;13.43;12.10;;;2.30;99.90;;;;;;5072692;28;20184;-71
2022/12/05 04:10:55;;;;;;;13.47;11.53;;;2.30;99.90;;;;;;5075904;28;20166;-71
2022/12/05 04:13:31;;;;;;;20.10;13.17;;;2.30;99.90;;;;;;5077295;28;20175;-69
2022/12/05 04:19:13;;;;;;;16.23;12.63;;;2.30;99.90;;;;;;5100808;28;20255;-71
2022/12/05 04:21:47;;;;;;;14.10;11.53;;;2.30;99.90;;;;;;5100350;28;20224;-70
2022/12/05 04:27:23;;;;;;;14.83;11.50;;;2.30;99.90;;;;;;5078855;28;20523;-68
2022/12/05 04:30:00;;;;;;;23.43;13.63;;;2.20;99.90;;;;;;5073763;28;20181;-71
2022/12/05 04:32:29;;;;;;;17.30;12.37;;;2.20;99.90;;;;;;5055809;28;20250;-67
2022/12/05 04:35:02;;;;;;;20.20;12.27;;;2.10;99.90;;;;;;5073959;28;20576;-69
2022/12/05 04:37:34;;;;;;;18.43;13.07;;;2.10;99.90;;;;;;5074050;28;20685;-69
2022/12/05 04:40:12;;;;;;;14.17;12.33;;;2.20;99.90;;;;;;5061504;28;20254;-69
2022/12/05 04:42:41;;;;;;;22.47;14.43;;;2.20;99.90;;;;;;5093874;28;20150;-69
2022/12/05 04:45:10;;;;;;;13.27;11.93;;;2.20;99.90;;;;;;5094058;28;20186;-71
2022/12/05 04:47:46;;;;;;;17.17;11.37;;;2.30;99.90;;;;;;5094339;28;20168;-72
2022/12/05 04:50:14;;;;;;;17.63;13.07;;;2.20;99.90;;;;;;5093915;28;20161;-70
2022/12/05 04:52:42;;;;;;;18.53;12.77;;;2.20;99.90;;;;;;5093562;28;20174;-66
2022/12/05 04:55:12;;;;;;;13.90;12.47;;;2.20;99.90;;;;;;5091984;28;20207;-66
2022/12/05 04:57:57;;;;;;;22.37;13.47;;;2.10;99.90;;;;;;5092235;28;20169;-66
2022/12/05 05:00:23;;;;;;;18.83;14.47;;;2.10;99.90;;;;;;5065606;28;20170;-66
2022/12/05 05:02:54;;;;;;;12.73;11.47;;;2.10;99.90;;;;;;5071873;28;20205;-66
2022/12/05 05:05:22;;;;;;;17.00;12.77;;;2.10;99.90;;;;;;5078182;28;20606;-65
2022/12/05 05:07:52;;;;;;;14.43;13.00;;;2.10;99.90;;;;;;5091359;28;20256;-66
2022/12/05 05:10:36;;;;;;;14.47;12.37;;;2.10;99.90;;;;;;5091731;28;20530;-66
2022/12/05 05:13:02;;;;;;;13.37;12.07;;;2.00;99.90;;;;;;5091967;28;20219;-65
2022/12/05 05:15:28;;;;;;;12.57;11.33;;;2.00;99.90;;;;;;5083758;28;20206;-65
2022/12/05 05:17:53;;;;;;;16.27;12.30;;;2.00;99.90;;;;;;5071712;28;20201;-66
2022/12/05 05:20:26;;;;;;;17.20;14.30;;;1.90;99.90;;;;;;5071344;28;20166;-66
2022/12/05 05:22:53;;;;;;;14.30;12.83;;;1.90;99.90;;;;;;5071657;28;20631;-66
2022/12/05 05:25:19;;;;;;;21.67;15.17;;;1.80;99.90;;;;;;5071555;28;20275;-66
2022/12/05 05:27:50;;;;;;;20.13;15.60;;;1.80;99.90;;;;;;5071786;28;20509;-65
2022/12/05 05:30:16;;;;;;;17.53;14.50;;;1.90;99.90;;;;;;5071380;28;20707;-65
2022/12/05 05:32:41;;;;;;;13.67;12.60;;;2.00;99.90;;;;;;5071633;28;20203;-66
2022/12/05 05:35:07;;;;;;;14.03;12.53;;;1.80;99.90;;;;;;5074682;28;20197;-66
2022/12/05 05:37:33;;;;;;;14.73;13.23;;;1.90;99.90;;;;;;5091738;28;20176;-66
2022/12/05 05:39:59;;;;;;;14.23;12.87;;;1.90;99.90;;;;;;5091290;28;20174;-65
2022/12/05 05:42:24;;;;;;;15.07;13.47;;;1.90;99.90;;;;;;5091557;28;20166;-66
2022/12/05 05:44:50;;;;;;;14.13;12.93;;;1.90;99.90;;;;;;5092517;28;20274;-65
2022/12/05 05:47:15;;;;;;;14.13;12.77;;;1.90;99.90;;;;;;5071840;28;20178;-66
2022/12/05 05:49:41;;;;;;;17.93;16.03;;;1.90;99.90;;;;;;5071347;28;20202;-66
2022/12/05 05:52:07;;;;;;;17.07;13.30;;;1.90;99.90;;;;;;5071215;28;20176;-65
2022/12/05 05:54:32;;;;;;;19.77;13.73;;;1.90;99.90;;;;;;5071268;28;20255;-66
2022/12/05 05:56:58;;;;;;;19.73;13.50;;;1.90;99.90;;;;;;5071235;28;20173;-65
2022/12/05 05:59:23;;;;;;;19.80;13.40;;;1.90;99.90;;;;;;5071328;28;20662;-65
2022/12/05 06:01:49;;;;;;;13.90;12.37;;;1.90;99.90;;;;;;5068392;28;20178;-65
2022/12/05 06:04:14;;;;;;;13.90;12.03;;;1.90;99.90;;;;;;5091355;28;20196;-65
2022/12/05 06:06:40;;;;;;;13.90;12.43;;;1.80;99.90;;;;;;5078339;28;20231;-65
2022/12/05 06:09:06;;;;;;;15.27;12.90;;;1.90;99.90;;;;;;5071041;28;20181;-65
2022/12/05 06:11:32;;;;;;;18.83;13.23;;;1.80;99.90;;;;;;5071051;28;20163;-65
2022/12/05 06:14:02;;;;;;;15.07;13.57;;;1.80;99.90;;;;;;5070827;28;20191;-65
2022/12/05 06:16:29;;;;;;;14.97;13.60;;;1.80;99.90;;;;;;5071156;28;20165;-65
2022/12/05 06:18:54;;;;;;;14.50;13.07;;;1.80;99.90;;;;;;5071310;28;20170;-65
2022/12/05 06:21:21;;;;;;;12.93;11.87;;;1.80;99.90;;;;;;5074821;28;20173;-65
2022/12/05 06:23:46;;;;;;;16.13;13.23;;;1.80;99.90;;;;;;5074677;28;20170;-66
2022/12/05 06:26:15;;;;;;;15.90;12.97;;;1.90;99.90;;;;;;5074588;28;20201;-65
2022/12/05 06:28:41;;;;;;;15.20;13.07;;;1.90;99.90;;;;;;5074570;28;20182;-65
2022/12/05 06:31:16;;;;;;;22.37;12.30;;;1.90;99.90;;;;;;5074404;28;20181;-65
2022/12/05 06:33:43;;;;;;;13.87;12.40;;;1.90;99.90;;;;;;5074503;28;20733;-65
2022/12/05 06:36:11;;;;;;;13.40;12.00;;;1.90;99.90;;;;;;5074455;28;20194;-65
2022/12/05 06:38:38;;;;;;;14.87;13.23;;;1.90;99.90;;;;;;5074476;28;20170;-65
2022/12/05 06:41:05;;;;;;;14.13;12.73;;;1.90;99.90;;;;;;5074158;28;20170;-65
2022/12/05 06:43:31;;;;;;;13.77;11.40;;;1.80;99.90;;;;;;5074383;28;20190;-65
2022/12/05 06:45:56;;;;;;;15.40;12.30;;;1.80;99.90;;;;;;5074302;28;20182;-65
2022/12/05 06:48:22;;;;;;;14.37;11.83;;;1.80;99.90;;;;;;5074100;28;20170;-65
2022/12/05 06:50:51;;;;;;;18.43;13.60;;;1.80;99.90;;;;;;5074203;28;20167;-65
2022/12/05 06:53:18;;;;;;;23.83;14.50;;;1.80;99.90;;;;;;5074022;28;20269;-65
2022/12/05 06:55:44;;;;;;;14.57;12.13;;;1.80;99.90;;;;;;5074439;28;20562;-65
2022/12/05 06:58:09;;;;;;;23.30;15.27;;;1.70;99.90;;;;;;5091849;28;20178;-65
2022/12/05 07:03:19;;;;;;;14.30;12.83;;;1.60;99.90;;;;;;5094218;28;20243;-65
2022/12/05 07:05:45;;;;;;;14.63;13.17;;;1.60;99.90;;;;;;5089563;28;20186;-65
2022/12/05 07:08:10;;;;;;;18.40;14.00;;;1.90;99.90;;;;;;5061812;28;20689;-65
2022/12/05 07:10:36;;;;;;;16.30;14.17;;;1.60;99.90;;;;;;5073622;28;20162;-65
2022/12/05 07:13:01;;;;;;;16.27;13.63;;;1.60;99.90;;;;;;5073704;28;20252;-65
2022/12/05 07:15:27;;;;;;;15.47;13.87;;;1.60;99.90;;;;;;5073416;28;20587;-65
2022/12/05 07:17:53;;;;;;;17.20;12.53;;;1.60;99.90;;;;;;5073630;28;20182;-65
2022/12/05 07:20:18;;;;;;;17.07;12.47;;;1.50;99.90;;;;;;5073428;28;20167;-65
2022/12/05 07:22:44;;;;;;;18.87;12.73;;;1.60;99.90;;;;;;5073426;28;20170;-65
2022/12/05 07:25:10;;;;;;;14.67;13.03;;;1.60;99.90;;;;;;5073271;28;20194;-65
2022/12/05 07:27:36;;;;;;;14.43;12.10;;;1.60;99.90;;;;;;5083511;28;20614;-65
2022/12/05 07:30:03;;;;;;;12.37;11.27;;;1.60;99.90;;;;;;5093168;28;20216;-65
2022/12/05 07:32:32;;;;;;;20.73;13.53;;;1.60;99.90;;;;;;5091841;28;20272;-65
2022/12/05 07:34:58;;;;;;;14.80;11.90;;;1.60;99.90;;;;;;5093123;28;20201;-65
2022/12/05 07:37:24;;;;;;;12.93;11.73;;;1.60;99.90;;;;;;5085206;28;20189;-65
2022/12/05 07:39:53;;;;;;;19.57;12.70;;;1.60;99.90;;;;;;5057736;28;20221;-65
2022/12/05 07:42:19;;;;;;;13.30;11.83;;;1.60;99.90;;;;;;5080007;28;20514;-65
2022/12/05 07:44:44;;;;;;;19.70;11.97;;;1.60;99.90;;;;;;5091436;28;20258;-65
2022/12/05 07:47:10;;;;;;;11.30;10.23;;;1.60;99.90;;;;;;5070214;28;20235;-65
2022/12/05 07:49:36;;;;;;;17.20;12.47;;;1.60;99.90;;;;;;5077692;28;20177;-65
2022/12/05 07:52:01;;;;;;;21.37;13.10;;;1.60;99.90;;;;;;5072799;28;20600;-65
2022/12/05 07:54:27;;;;;;;17.83;12.47;;;1.60;99.90;;;;;;5072740;28;20233;-65
2022/12/05 07:56:53;;;;;;;13.23;11.93;;;1.60;99.90;;;;;;5054610;28;20221;-64
2022/12/05 07:59:18;;;;;;;21.37;13.53;;;1.60;99.90;;;;;;5072506;28;20181;-65
2022/12/05 08:01:44;;;;;;;15.73;12.40;;;1.60;99.90;;;;;;5054825;28;20265;-65
2022/12/05 08:04:10;;;;;;;13.60;12.33;;;1.60;99.90;;;;;;5072378;28;20195;-65
2022/12/05 08:06:36;;;;;;;17.37;13.07;;;1.60;99.90;;;;;;5054921;28;20236;-65
2022/12/05 08:09:01;;;;;;;13.80;12.43;;;1.60;99.90;;;;;;5072335;28;20178;-65
2022/12/05 08:11:29;;;;;;;22.13;13.33;;;1.60;99.90;;;;;;5073373;28;20178;-65
2022/12/05 08:13:56;;;;;;;15.47;13.83;;;1.60;99.90;;;;;;5082198;28;20246;-65
2022/12/05 08:16:25;;;;;;;15.37;13.77;;;1.70;99.90;;;;;;5089058;28;20653;-65
2022/12/05 08:19:03;;;;;;;25.70;12.30;;;1.70;99.90;;;;;;5085229;28;20173;-66
2022/12/05 08:21:30;;;;;;;18.93;13.33;;;1.80;99.90;;;;;;5038780;28;20174;-65
2022/12/05 08:23:56;;;;;;;14.03;12.53;;;1.80;99.90;;;;;;5090066;28;20204;-65
2022/12/05 08:26:23;;;;;;;15.73;11.63;;;1.80;99.90;;;;;;5073138;28;20178;-66
2022/12/05 08:28:54;;;;;;;13.67;12.30;;;1.70;99.90;;;;;;5092396;28;20869;-65
2022/12/05 08:31:22;;;;;;;17.70;13.37;;;1.70;99.90;;;;;;5091851;28;20658;-65
2022/12/05 08:33:48;;;;;;;18.07;13.23;;;1.80;99.90;;;;;;5082482;28;20194;-66
2022/12/05 08:36:14;;;;;;;14.77;13.43;;;1.80;99.90;;;;;;5053876;28;20166;-65
2022/12/05 08:38:41;;;;;;;15.07;13.73;;;1.80;99.90;;;;;;5078691;28;20181;-65
2022/12/05 08:41:09;;;;;;;17.17;14.17;;;1.90;99.90;;;;;;5090068;28;20231;-65
2022/12/05 08:43:35;;;;;;;15.03;13.17;;;1.90;99.90;;;;;;5083789;28;20173;-65
2022/12/05 08:46:01;;;;;;;16.57;13.90;;;2.00;99.90;;;;;;5082155;28;20259;-66
2022/12/05 08:48:28;;;;;;;14.00;12.27;;;2.00;99.90;;;;;;5071835;28;20188;-65
2022/12/05 08:50:54;;;;;;;13.90;12.57;;;2.00;99.90;;;;;;5070599;28;20174;-65
2022/12/05 08:53:20;;;;;;;14.70;13.40;;;2.00;99.90;;;;;;5071832;28;20173;-65
2022/12/05 08:55:46;;;;;;;16.07;14.10;;;2.00;99.90;;;;;;5071971;28;20194;-65
2022/12/05 08:58:11;;;;;;;14.63;12.77;;;2.00;99.90;;;;;;5091507;28;20177;-65
2022/12/05 09:00:37;;;;;;;14.13;12.77;;;2.00;99.90;;;;;;5090004;28;20234;-65
2022/12/05 09:03:03;;;;;;;15.53;13.30;;;2.10;99.90;;;;;;5091414;28;20548;-65
2022/12/05 09:05:29;;;;;;;17.80;12.80;;;2.10;99.90;;;;;;5076482;28;20263;-65
2022/12/05 09:07:55;;;;;;;18.80;14.40;;;2.10;99.90;;;;;;5072569;28;20247;-65
2022/12/05 09:10:20;;;;;;;14.03;12.60;;;2.10;99.90;;;;;;5091526;28;20667;-65
2022/12/05 09:12:46;;;;;;;18.90;14.50;;;2.00;99.90;;;;;;5074806;28;20185;-65
2022/12/05 09:15:12;;;;;;;14.43;11.60;;;2.00;99.90;;;;;;5065983;28;20201;-65
2022/12/05 09:17:38;;;;;;;17.03;12.67;;;2.00;99.90;;;;;;5092959;28;20178;-65
2022/12/05 09:20:05;;;;;;;12.37;11.20;;;2.00;99.90;;;;;;5078974;28;20178;-65
2022/12/05 09:22:31;;;;;;;14.83;12.17;;;2.10;99.90;;;;;;5073198;28;20696;-66
2022/12/05 09:24:57;;;;;;;16.67;13.40;;;2.10;99.90;;;;;;5057012;28;20202;-65
2022/12/05 09:27:22;;;;;;;16.67;11.67;;;2.00;99.90;;;;;;5085083;28;20198;-65
2022/12/05 09:29:48;;;;;;;15.13;13.27;;;2.00;99.90;;;;;;5090222;28;20177;-65
2022/12/05 09:32:14;;;;;;;13.60;12.33;;;2.00;99.90;;;;;;5080972;28;20276;-65
2022/12/05 09:34:40;;;;;;;15.53;13.93;;;2.00;99.90;;;;;;5072578;28;20216;-65
2022/12/05 09:37:06;;;;;;;16.33;13.00;;;2.00;99.90;;;;;;5090529;28;20226;-64
2022/12/05 09:39:33;;;;;;;16.20;14.10;;;2.10;99.90;;;;;;5083814;28;20217;-64
2022/12/05 09:42:28;;;;;;;18.57;13.57;;;2.10;99.90;;;;;;5059562;28;20763;-65
2022/12/05 09:45:14;;;;;;;13.50;11.73;;;2.10;99.90;;;;;;5063094;28;20190;-64
2022/12/05 09:47:53;;;;;;;19.10;13.73;;;2.10;99.90;;;;;;5080221;28;20185;-65
2022/12/05 09:50:45;;;;;;;18.40;13.90;;;2.10;99.90;;;;;;5082770;28;20178;-64
2022/12/05 09:53:39;;;;;;;17.07;13.90;;;2.20;99.90;;;;;;5089918;28;20272;-64
2022/12/05 09:56:08;;;;;;;11.20;10.20;;;2.10;99.90;;;;;;5081881;28;20212;-64
2022/12/05 09:58:46;;;;;;;15.73;12.07;;;2.10;99.90;;;;;;5075635;28;20194;-64
2022/12/05 10:01:33;;;;;;;15.57;12.97;;;2.10;99.90;;;;;;5075846;28;20178;-64
2022/12/05 10:04:43;;;;;;;14.30;12.00;;;2.20;99.90;;;;;;5075258;28;20170;-64
2022/12/05 10:07:46;;;;;;;17.13;12.33;;;2.20;99.90;;;;;;4974267;28;20572;-64
2022/12/05 10:10:30;;;;;;;13.37;12.07;;;2.30;99.90;;;;;;4966972;28;20728;-64
2022/12/05 10:13:19;;;;;;;12.90;11.03;;;2.40;99.90;;;;;;5083306;28;20189;-65
2022/12/05 10:15:49;;;;;;;12.73;11.43;;;2.40;99.90;;;;;;5086606;28;20202;-64
2022/12/05 10:18:40;;;;;;;13.83;12.40;;;2.40;99.90;;;;;;5074987;28;20170;-66
2022/12/05 10:21:05;;;;;;;22.03;12.50;;;2.40;99.90;;;;;;5082307;28;20700;-65
2022/12/05 10:23:43;;;;;;;17.77;11.27;;;2.30;99.90;;;;;;5075017;28;20258;-68
2022/12/05 10:26:12;;;;;;;17.40;12.33;;;2.30;99.90;;;;;;5074386;28;20277;-65
2022/12/05 10:28:58;;;;;;;15.13;12.90;;;2.40;99.90;;;;;;5074681;28;20252;-66
2022/12/05 10:31:32;;;;;;;17.80;11.63;;;2.40;99.90;;;;;;5053313;28;20179;-66
2022/12/05 10:34:13;;;;;;;17.80;12.13;;;2.40;99.90;;;;;;5058825;28;20680;-65
2022/12/05 10:36:56;;;;;;;16.93;13.70;;;2.50;99.90;;;;;;5095072;28;20177;-65
2022/12/05 10:39:22;;;;;;;15.87;12.77;;;2.50;99.90;;;;;;5089537;28;20173;-65
2022/12/05 10:41:47;;;;;;;15.87;14.27;;;2.60;99.90;;;;;;5065276;28;20544;-65
2022/12/05 10:44:13;;;;;;;15.87;13.07;;;2.70;99.90;;;;;;5091168;28;20347;-65
2022/12/05 10:46:39;;;;;;;18.23;14.27;;;2.70;99.90;;;;;;5056295;28;20205;-66
2022/12/05 10:49:10;;;;;;;18.73;11.67;;;2.70;99.90;;;;;;5074945;28;20253;-65
2022/12/05 10:51:37;;;;;;;17.97;12.70;;;2.60;99.90;;;;;;5074989;28;20264;-65
2022/12/05 10:54:19;;;;;;;15.13;12.47;;;2.60;99.90;;;;;;5074662;28;20297;-66
2022/12/05 10:56:47;;;;;;;18.20;13.60;;;2.60;99.90;;;;;;5094208;28;20518;-65
2022/12/05 10:59:19;;;;;;;15.57;13.37;;;2.60;99.90;;;;;;5092579;28;20166;-65
2022/12/05 11:01:57;;;;;;;14.40;13.00;;;2.60;99.90;;;;;;5055898;28;20170;-65
2022/12/05 11:04:25;;;;;;;15.60;13.03;;;2.60;99.90;;;;;;5075681;28;20246;-65
2022/12/05 11:07:03;;;;;;;15.40;13.03;;;2.60;99.90;;;;;;5091892;28;20186;-65
2022/12/05 11:09:33;;;;;;;16.87;12.60;;;2.60;99.90;;;;;;5073039;28;20190;-65
2022/12/05 11:12:19;;;;;;;14.23;11.10;;;2.60;99.90;;;;;;5073543;28;20178;-65
2022/12/05 11:14:56;;;;;;;18.83;12.03;;;2.60;99.90;;;;;;5077222;28;20242;-65
2022/12/05 11:17:30;;;;;;;13.73;12.17;;;2.50;99.90;;;;;;5093974;28;20173;-65
2022/12/05 11:19:56;;;;;;;13.73;12.53;;;2.40;99.90;;;;;;5091897;28;20255;-65
2022/12/05 11:22:34;;;;;;;14.30;11.63;;;2.40;99.90;;;;;;5093932;28;20631;-66
2022/12/05 11:25:00;;;;;;;16.13;14.50;;;2.40;99.90;;;;;;5070229;28;20202;-66
2022/12/05 11:27:31;;;;;;;18.03;13.77;;;2.30;99.90;;;;;;5073524;28;20186;-65
2022/12/05 11:29:58;;;;;;;15.63;14.00;;;2.30;99.90;;;;;;5077077;28;20177;-65
2022/12/05 11:32:27;;;;;;;12.20;10.33;;;2.30;99.90;;;;;;5075332;28;20181;-65
2022/12/05 11:35:26;;;;;;;17.43;13.13;;;2.20;99.90;;;;;;5071799;28;20213;-65
2022/12/05 11:37:54;;;;;;;22.97;15.37;;;2.30;99.90;;;;;;5068423;28;20271;-65
2022/12/05 11:40:29;;;;;;;15.37;13.70;;;2.30;99.90;;;;;;5073179;28;20174;-65
2022/12/05 11:43:27;;;;;;;13.13;11.73;;;2.30;99.90;;;;;;5072949;28;20234;-65
2022/12/05 11:45:58;;;;;;;19.47;12.50;;;2.40;99.90;;;;;;5083169;28;20197;-65
2022/12/05 11:48:37;;;;;;;16.00;13.57;;;2.40;99.90;;;;;;5093270;28;20176;-65
2022/12/05 11:51:09;;;;;;;14.83;12.57;;;2.40;99.90;;;;;;5080546;28;20180;-65
2022/12/05 11:53:52;;;;;;;18.27;13.30;;;2.50;99.90;;;;;;5073152;28;20182;-65
2022/12/05 11:56:42;;;;;;;17.27;13.57;;;2.50;99.90;;;;;;5067392;28;20268;-65
2022/12/05 11:59:33;;;;;;;16.17;13.40;;;2.50;99.90;;;;;;5093251;28;20181;-65
2022/12/05 12:02:32;;;;;;;14.83;13.33;;;2.60;99.90;;;;;;5058068;28;20189;-65
2022/12/05 12:05:06;;;;;;;13.40;12.13;;;2.60;99.90;;;;;;5072634;28;20216;-65
2022/12/05 12:08:02;;;;;;;18.77;13.77;;;2.50;99.90;;;;;;5093005;28;20182;-65
2022/12/05 12:10:46;;;;;;;16.30;14.07;;;2.50;99.90;;;;;;5088336;28;20176;-65
2022/12/05 12:13:25;;;;;;;15.03;12.47;;;2.40;99.90;;;;;;5072704;28;20324;-65
2022/12/05 12:16:14;;;;;;;15.17;13.03;;;2.40;99.90;;;;;;5070431;28;20220;-65
2022/12/05 12:18:55;;;;;;;13.33;12.00;;;2.40;99.90;;;;;;5054154;28;20357;-65
2022/12/05 12:21:50;;;;;;;15.63;14.17;;;2.30;99.90;;;;;;5064282;28;20724;-65
2022/12/05 12:24:40;;;;;;;26.70;15.03;;;2.40;99.90;;;;;;5065243;28;20202;-65
2022/12/05 12:27:43;;;;;;;16.57;14.83;;;2.60;99.90;;;;;;5083708;28;20195;-65
2022/12/05 12:30:51;;;;;;;15.43;12.77;;;2.60;99.90;;;;;;5092306;28;20185;-65
2022/12/05 12:33:40;;;;;;;14.97;12.80;;;2.80;99.90;;;;;;5034520;28;20193;-65
2022/12/05 12:36:09;;;;;;;19.73;14.70;;;2.80;99.90;;;;;;5047184;28;20213;-65
2022/12/05 12:39:14;;;;;;;19.30;13.97;;;2.80;99.90;;;;;;5092371;28;20203;-65
2022/12/05 12:42:07;;;;;;;14.83;12.03;;;2.90;99.90;;;;;;5081484;28;20261;-65
2022/12/05 12:44:50;;;;;;;14.43;13.00;;;2.90;99.90;;;;;;5072047;28;20582;-65
2022/12/05 12:47:40;;;;;;;13.93;11.57;;;2.80;99.90;;;;;;5087045;28;20181;-65
2022/12/05 12:50:24;;;;;;;19.20;15.10;;;2.90;99.90;;;;;;5073516;28;20192;-65
2022/12/05 12:53:20;;;;;;;13.20;12.00;;;2.80;99.90;;;;;;5071143;28;20200;-65
2022/12/05 12:56:01;;;;;;;17.97;14.13;;;2.80;99.90;;;;;;5072922;28;20214;-65
2022/12/05 12:58:49;;;;;;;15.60;13.13;;;2.80;99.90;;;;;;5092033;28;20608;-65
2022/12/05 13:01:30;;;;;;;18.83;12.13;;;2.70;99.90;;;;;;5086817;28;20262;-65
2022/12/05 13:04:04;;;;;;;18.03;13.27;;;2.70;99.90;;;;;;5071503;28;20177;-65
2022/12/05 13:06:42;;;;;;;17.17;13.70;;;2.70;99.90;;;;;;5059985;28;20199;-65
2022/12/05 13:09:17;;;;;;;13.77;12.17;;;2.60;99.90;;;;;;5091569;28;20212;-65